sensor_id;sensor_type;location;lat;lon;timestamp;temperature;humidity
13221;DHT22;6675;48.128;11.478;2024-02-21T00:00:43;2.60;1.00
13221;DHT22;6675;48.128;11.478;2024-02-21T00:03:09;4.50;1.00
13221;DHT22;6675;48.128;11.478;2024-02-21T00:05:34;4.80;3.50
13221;DHT22;6675;48.128;11.478;2024-02-21T00:08:00;4.50;1.60
13221;DHT22;6675;48.128;11.478;2024-02-21T00:10:25;4.30;1.00
13221;DHT22;6675;48.128;11.478;2024-02-21T00:12:51;6.40;8.20
13221;DHT22;6675;48.128;11.478;2024-02-21T00:15:17;4.50;3.80
13221;DHT22;6675;48.128;11.478;2024-02-21T00:17:46;4.80;3.50
13221;DHT22;6675;48.128;11.478;2024-02-21T00:20:11;5.70;9.50
13221;DHT22;6675;48.128;11.478;2024-02-21T00:22:37;6.40;10.00
13221;DHT22;6675;48.128;11.478;2024-02-21T00:27:32;4.70;2.40
13221;DHT22;6675;48.128;11.478;2024-02-21T00:29:58;3.90;8.10
13221;DHT22;6675;48.128;11.478;2024-02-21T00:32:23;4.70;3.30
13221;DHT22;6675;48.128;11.478;2024-02-21T00:34:49;4.30;3.10
13221;DHT22;6675;48.128;11.478;2024-02-21T00:37:14;5.00;9.10
13221;DHT22;6675;48.128;11.478;2024-02-21T00:39:40;4.30;3.70
13221;DHT22;6675;48.128;11.478;2024-02-21T00:42:07;4.80;3.60
13221;DHT22;6675;48.128;11.478;2024-02-21T00:44:33;4.80;4.20
13221;DHT22;6675;48.128;11.478;2024-02-21T00:46:58;4.30;3.70
13221;DHT22;6675;48.128;11.478;2024-02-21T00:49:24;4.40;3.80
13221;DHT22;6675;48.128;11.478;2024-02-21T00:51:49;5.70;8.10
13221;DHT22;6675;48.128;11.478;2024-02-21T00:54:15;4.90;3.40
13221;DHT22;6675;48.128;11.478;2024-02-21T00:56:42;5.00;3.30
13221;DHT22;6675;48.128;11.478;2024-02-21T00:59:07;5.00;8.10
13221;DHT22;6675;48.128;11.478;2024-02-21T01:01:33;4.80;3.90
13221;DHT22;6675;48.128;11.478;2024-02-21T01:03:58;4.50;3.60
13221;DHT22;6675;48.128;11.478;2024-02-21T01:06:24;4.70;3.50
13221;DHT22;6675;48.128;11.478;2024-02-21T01:08:50;4.80;3.10
13221;DHT22;6675;48.128;11.478;2024-02-21T01:11:16;4.90;8.60
13221;DHT22;6675;48.128;11.478;2024-02-21T01:13:42;4.40;4.50
13221;DHT22;6675;48.128;11.478;2024-02-21T01:16:07;4.40;3.50
13221;DHT22;6675;48.128;11.478;2024-02-21T01:18:34;4.50;3.20
13221;DHT22;6675;48.128;11.478;2024-02-21T01:21:00;3.30;6.60
13221;DHT22;6675;48.128;11.478;2024-02-21T01:23:25;4.90;2.70
13221;DHT22;6675;48.128;11.478;2024-02-21T01:25:51;4.10;3.60
13221;DHT22;6675;48.128;11.478;2024-02-21T01:28:18;4.30;2.60
13221;DHT22;6675;48.128;11.478;2024-02-21T01:30:43;3.30;7.30
13221;DHT22;6675;48.128;11.478;2024-02-21T01:33:09;4.50;3.10
13221;DHT22;6675;48.128;11.478;2024-02-21T01:35:35;4.60;3.10
13221;DHT22;6675;48.128;11.478;2024-02-21T01:38:01;4.40;2.70
13221;DHT22;6675;48.128;11.478;2024-02-21T01:40:26;4.20;3.00
13221;DHT22;6675;48.128;11.478;2024-02-21T01:42:54;5.30;8.80
13221;DHT22;6675;48.128;11.478;2024-02-21T01:45:20;4.70;3.80
13221;DHT22;6675;48.128;11.478;2024-02-21T01:47:46;4.00;3.40
13221;DHT22;6675;48.128;11.478;2024-02-21T01:50:13;4.10;3.50
13221;DHT22;6675;48.128;11.478;2024-02-21T01:52:40;4.60;3.30
13221;DHT22;6675;48.128;11.478;2024-02-21T01:55:06;6.00;9.00
13221;DHT22;6675;48.128;11.478;2024-02-21T01:57:32;4.40;7.10
13221;DHT22;6675;48.128;11.478;2024-02-21T01:59:58;4.40;2.70
13221;DHT22;6675;48.128;11.478;2024-02-21T02:02:24;4.60;2.40
13221;DHT22;6675;48.128;11.478;2024-02-21T02:04:50;4.60;2.70
13221;DHT22;6675;48.128;11.478;2024-02-21T02:07:17;6.10;7.60
13221;DHT22;6675;48.128;11.478;2024-02-21T02:09:42;3.20;5.80
13221;DHT22;6675;48.128;11.478;2024-02-21T02:12:09;4.10;7.10
13221;DHT22;6675;48.128;11.478;2024-02-21T02:14:35;4.50;2.00
13221;DHT22;6675;48.128;11.478;2024-02-21T02:17:00;4.60;1.60
13221;DHT22;6675;48.128;11.478;2024-02-21T02:19:26;4.50;6.40
13221;DHT22;6675;48.128;11.478;2024-02-21T02:21:56;4.90;7.70
13221;DHT22;6675;48.128;11.478;2024-02-21T02:24:24;4.90;1.10
13221;DHT22;6675;48.128;11.478;2024-02-21T02:26:53;5.50;7.40
13221;DHT22;6675;48.128;11.478;2024-02-21T02:29:18;4.50;1.80
13221;DHT22;6675;48.128;11.478;2024-02-21T02:31:44;3.40;5.90
13221;DHT22;6675;48.128;11.478;2024-02-21T02:34:10;2.90;4.00
13221;DHT22;6675;48.128;11.478;2024-02-21T02:36:35;2.70;5.80
13221;DHT22;6675;48.128;11.478;2024-02-21T02:39:01;2.70;4.60
13221;DHT22;6675;48.128;11.478;2024-02-21T02:41:26;4.80;2.90
13221;DHT22;6675;48.128;11.478;2024-02-21T02:43:52;4.10;1.80
13221;DHT22;6675;48.128;11.478;2024-02-21T02:46:18;4.20;1.80
13221;DHT22;6675;48.128;11.478;2024-02-21T02:48:43;4.00;1.80
13221;DHT22;6675;48.128;11.478;2024-02-21T02:51:10;5.90;7.10
13221;DHT22;6675;48.128;11.478;2024-02-21T02:53:35;4.70;3.30
13221;DHT22;6675;48.128;11.478;2024-02-21T02:56:01;4.30;1.00
13221;DHT22;6675;48.128;11.478;2024-02-21T02:58:27;4.20;2.70
13221;DHT22;6675;48.128;11.478;2024-02-21T03:00:52;2.60;8.00
13221;DHT22;6675;48.128;11.478;2024-02-21T03:03:18;4.50;3.90
13221;DHT22;6675;48.128;11.478;2024-02-21T03:05:43;4.60;2.20
13221;DHT22;6675;48.128;11.478;2024-02-21T03:08:09;5.80;8.40
13221;DHT22;6675;48.128;11.478;2024-02-21T03:10:35;4.50;6.90
13221;DHT22;6675;48.128;11.478;2024-02-21T03:13:01;4.40;2.30
13221;DHT22;6675;48.128;11.478;2024-02-21T03:15:26;5.00;10.70
13221;DHT22;6675;48.128;11.478;2024-02-21T03:17:52;3.90;4.20
13221;DHT22;6675;48.128;11.478;2024-02-21T03:20:18;5.20;10.00
13221;DHT22;6675;48.128;11.478;2024-02-21T03:22:45;4.10;4.90
13221;DHT22;6675;48.128;11.478;2024-02-21T03:25:10;3.50;3.30
13221;DHT22;6675;48.128;11.478;2024-02-21T03:27:38;4.20;5.30
13221;DHT22;6675;48.128;11.478;2024-02-21T03:30:04;3.90;4.70
13221;DHT22;6675;48.128;11.478;2024-02-21T03:32:30;4.00;4.70
13221;DHT22;6675;48.128;11.478;2024-02-21T03:34:55;4.20;6.30
13221;DHT22;6675;48.128;11.478;2024-02-21T03:37:21;5.50;12.00
13221;DHT22;6675;48.128;11.478;2024-02-21T03:39:47;3.80;5.10
13221;DHT22;6675;48.128;11.478;2024-02-21T03:42:12;4.10;5.80
13221;DHT22;6675;48.128;11.478;2024-02-21T03:44:39;3.80;5.40
13221;DHT22;6675;48.128;11.478;2024-02-21T03:47:04;3.80;4.70
13221;DHT22;6675;48.128;11.478;2024-02-21T03:49:30;1.90;9.20
13221;DHT22;6675;48.128;11.478;2024-02-21T03:51:56;5.50;12.30
13221;DHT22;6675;48.128;11.478;2024-02-21T03:54:21;3.50;6.20
13221;DHT22;6675;48.128;11.478;2024-02-21T03:56:47;5.60;13.80
13221;DHT22;6675;48.128;11.478;2024-02-21T03:59:15;5.10;14.10
13221;DHT22;6675;48.128;11.478;2024-02-21T04:01:41;5.40;13.90
13221;DHT22;6675;48.128;11.478;2024-02-21T04:04:07;3.50;7.40
13221;DHT22;6675;48.128;11.478;2024-02-21T04:08:58;2.80;6.40
13221;DHT22;6675;48.128;11.478;2024-02-21T04:11:24;4.30;13.50
13221;DHT22;6675;48.128;11.478;2024-02-21T04:13:50;3.20;13.10
13221;DHT22;6675;48.128;11.478;2024-02-21T04:16:17;3.70;6.90
13221;DHT22;6675;48.128;11.478;2024-02-21T04:18:42;4.10;8.00
13221;DHT22;6675;48.128;11.478;2024-02-21T04:21:09;2.20;6.00
13221;DHT22;6675;48.128;11.478;2024-02-21T04:23:35;4.10;2.60
13221;DHT22;6675;48.128;11.478;2024-02-21T04:26:00;4.10;3.00
13221;DHT22;6675;48.128;11.478;2024-02-21T04:28:26;4.30;2.10
13221;DHT22;6675;48.128;11.478;2024-02-21T04:30:52;2.50;5.10
13221;DHT22;6675;48.128;11.478;2024-02-21T04:33:18;4.10;1.00
13221;DHT22;6675;48.128;11.478;2024-02-21T04:35:43;2.50;5.40
13221;DHT22;6675;48.128;11.478;2024-02-21T04:38:09;4.60;1.80
13221;DHT22;6675;48.128;11.478;2024-02-21T04:40:34;5.90;10.30
13221;DHT22;6675;48.128;11.478;2024-02-21T04:43:00;3.80;10.30
13221;DHT22;6675;48.128;11.478;2024-02-21T04:45:25;4.30;5.40
13221;DHT22;6675;48.128;11.478;2024-02-21T04:47:51;6.10;10.80
13221;DHT22;6675;48.128;11.478;2024-02-21T04:50:16;4.30;5.30
13221;DHT22;6675;48.128;11.478;2024-02-21T04:52:43;6.20;9.00
13221;DHT22;6675;48.128;11.478;2024-02-21T04:55:08;4.10;2.90
13221;DHT22;6675;48.128;11.478;2024-02-21T04:57:34;4.10;4.10
13221;DHT22;6675;48.128;11.478;2024-02-21T05:00:00;3.60;7.20
13221;DHT22;6675;48.128;11.478;2024-02-21T05:02:25;4.60;11.20
13221;DHT22;6675;48.128;11.478;2024-02-21T05:04:52;4.50;4.50
13221;DHT22;6675;48.128;11.478;2024-02-21T05:07:18;4.40;6.30
13221;DHT22;6675;48.128;11.478;2024-02-21T05:09:45;4.50;5.30
13221;DHT22;6675;48.128;11.478;2024-02-21T05:12:10;5.80;11.70
13221;DHT22;6675;48.128;11.478;2024-02-21T05:14:36;5.80;12.70
13221;DHT22;6675;48.128;11.478;2024-02-21T05:17:03;2.50;10.00
13221;DHT22;6675;48.128;11.478;2024-02-21T05:19:28;4.30;9.90
13221;DHT22;6675;48.128;11.478;2024-02-21T05:21:54;5.70;11.60
13221;DHT22;6675;48.128;11.478;2024-02-21T05:24:19;4.10;6.80
13221;DHT22;6675;48.128;11.478;2024-02-21T05:26:45;5.30;12.70
13221;DHT22;6675;48.128;11.478;2024-02-21T05:29:11;4.20;6.60
13221;DHT22;6675;48.128;11.478;2024-02-21T05:34:21;4.30;12.40
13221;DHT22;6675;48.128;11.478;2024-02-21T05:36:47;2.10;6.80
13221;DHT22;6675;48.128;11.478;2024-02-21T05:39:14;4.00;6.70
13221;DHT22;6675;48.128;11.478;2024-02-21T05:41:40;4.10;6.00
13221;DHT22;6675;48.128;11.478;2024-02-21T05:44:05;3.90;7.30
13221;DHT22;6675;48.128;11.478;2024-02-21T05:46:31;4.10;7.80
13221;DHT22;6675;48.128;11.478;2024-02-21T05:48:57;4.60;13.60
13221;DHT22;6675;48.128;11.478;2024-02-21T05:51:22;4.20;7.90
13221;DHT22;6675;48.128;11.478;2024-02-21T05:53:48;4.30;13.60
13221;DHT22;6675;48.128;11.478;2024-02-21T05:56:14;4.30;12.20
13221;DHT22;6675;48.128;11.478;2024-02-21T05:58:40;5.00;14.20
13221;DHT22;6675;48.128;11.478;2024-02-21T06:01:07;4.10;7.20
13221;DHT22;6675;48.128;11.478;2024-02-21T06:03:33;3.90;6.50
13221;DHT22;6675;48.128;11.478;2024-02-21T06:06:00;4.30;12.70
13221;DHT22;6675;48.128;11.478;2024-02-21T06:08:25;3.50;13.60
13221;DHT22;6675;48.128;11.478;2024-02-21T06:10:51;3.40;10.80
13221;DHT22;6675;48.128;11.478;2024-02-21T06:13:26;4.30;7.70
13221;DHT22;6675;48.128;11.478;2024-02-21T06:15:52;3.90;7.50
13221;DHT22;6675;48.128;11.478;2024-02-21T06:18:18;3.90;7.60
13221;DHT22;6675;48.128;11.478;2024-02-21T06:20:44;4.00;11.80
13221;DHT22;6675;48.128;11.478;2024-02-21T06:23:10;5.60;14.10
13221;DHT22;6675;48.128;11.478;2024-02-21T06:25:35;4.10;12.80
13221;DHT22;6675;48.128;11.478;2024-02-21T06:28:01;4.30;13.70
13221;DHT22;6675;48.128;11.478;2024-02-21T06:30:27;3.80;8.20
13221;DHT22;6675;48.128;11.478;2024-02-21T06:32:52;2.30;12.30
13221;DHT22;6675;48.128;11.478;2024-02-21T06:35:21;5.10;14.90
13221;DHT22;6675;48.128;11.478;2024-02-21T06:37:47;3.30;14.10
13221;DHT22;6675;48.128;11.478;2024-02-21T06:40:17;5.30;15.70
13221;DHT22;6675;48.128;11.478;2024-02-21T06:42:42;3.70;9.40
13221;DHT22;6675;48.128;11.478;2024-02-21T06:47:34;1.80;14.50
13221;DHT22;6675;48.128;11.478;2024-02-21T06:50:00;3.40;10.80
13221;DHT22;6675;48.128;11.478;2024-02-21T06:52:25;3.60;11.80
13221;DHT22;6675;48.128;11.478;2024-02-21T06:54:52;3.90;11.90
13221;DHT22;6675;48.128;11.478;2024-02-21T06:57:17;5.50;18.10
13221;DHT22;6675;48.128;11.478;2024-02-21T06:59:43;4.50;17.30
13221;DHT22;6675;48.128;11.478;2024-02-21T07:02:08;4.40;17.40
13221;DHT22;6675;48.128;11.478;2024-02-21T07:04:34;4.40;12.00
13221;DHT22;6675;48.128;11.478;2024-02-21T07:07:00;4.10;10.00
13221;DHT22;6675;48.128;11.478;2024-02-21T07:09:26;4.60;10.20
13221;DHT22;6675;48.128;11.478;2024-02-21T07:11:51;3.70;10.50
13221;DHT22;6675;48.128;11.478;2024-02-21T07:14:18;4.40;8.30
13221;DHT22;6675;48.128;11.478;2024-02-21T07:16:44;4.70;2.10
13221;DHT22;6675;48.128;11.478;2024-02-21T07:19:09;6.00;6.20
13221;DHT22;6675;48.128;11.478;2024-02-21T07:21:35;3.00;3.70
13221;DHT22;6675;48.128;11.478;2024-02-21T07:24:03;5.10;1.00
13221;DHT22;6675;48.128;11.478;2024-02-21T07:26:30;3.20;1.00
13221;DHT22;6675;48.128;11.478;2024-02-21T07:28:56;5.60;2.60
13221;DHT22;6675;48.128;11.478;2024-02-21T07:31:22;5.00;1.00
13221;DHT22;6675;48.128;11.478;2024-02-21T07:33:47;3.60;1.00
13221;DHT22;6675;48.128;11.478;2024-02-21T07:36:15;6.30;2.20
13221;DHT22;6675;48.128;11.478;2024-02-21T07:38:40;5.10;1.00
13221;DHT22;6675;48.128;11.478;2024-02-21T07:41:07;5.40;1.00
13221;DHT22;6675;48.128;11.478;2024-02-21T07:43:32;5.40;1.00
13221;DHT22;6675;48.128;11.478;2024-02-21T07:45:58;5.70;1.00
13221;DHT22;6675;48.128;11.478;2024-02-21T07:48:23;5.50;1.00
13221;DHT22;6675;48.128;11.478;2024-02-21T07:50:52;5.90;1.00
13221;DHT22;6675;48.128;11.478;2024-02-21T07:53:19;5.80;1.00
13221;DHT22;6675;48.128;11.478;2024-02-21T07:55:45;5.70;1.00
13221;DHT22;6675;48.128;11.478;2024-02-21T07:58:10;4.40;1.00
13221;DHT22;6675;48.128;11.478;2024-02-21T08:00:36;7.00;1.00
13221;DHT22;6675;48.128;11.478;2024-02-21T08:03:02;5.60;1.00
13221;DHT22;6675;48.128;11.478;2024-02-21T08:05:28;6.20;1.00
13221;DHT22;6675;48.128;11.478;2024-02-21T08:07:55;5.90;1.00
13221;DHT22;6675;48.128;11.478;2024-02-21T08:10:20;6.30;1.00
13221;DHT22;6675;48.128;11.478;2024-02-21T08:12:46;6.20;1.00
13221;DHT22;6675;48.128;11.478;2024-02-21T08:15:12;6.40;1.00
13221;DHT22;6675;48.128;11.478;2024-02-21T08:17:37;6.30;1.00
13221;DHT22;6675;48.128;11.478;2024-02-21T08:20:04;6.10;1.00
13221;DHT22;6675;48.128;11.478;2024-02-21T08:22:30;6.70;1.00
13221;DHT22;6675;48.128;11.478;2024-02-21T08:24:56;6.60;1.00
13221;DHT22;6675;48.128;11.478;2024-02-21T08:27:21;8.10;1.00
13221;DHT22;6675;48.128;11.478;2024-02-21T08:29:47;10.30;1.00
13221;DHT22;6675;48.128;11.478;2024-02-21T08:32:12;13.80;1.00
13221;DHT22;6675;48.128;11.478;2024-02-21T08:34:38;14.80;1.00
13221;DHT22;6675;48.128;11.478;2024-02-21T08:37:04;17.00;1.00
13221;DHT22;6675;48.128;11.478;2024-02-21T08:39:30;18.80;1.00
13221;DHT22;6675;48.128;11.478;2024-02-21T08:41:56;20.20;1.00
13221;DHT22;6675;48.128;11.478;2024-02-21T08:44:23;21.30;1.00
13221;DHT22;6675;48.128;11.478;2024-02-21T08:46:51;22.30;1.00
13221;DHT22;6675;48.128;11.478;2024-02-21T08:49:16;23.00;1.00
13221;DHT22;6675;48.128;11.478;2024-02-21T08:51:42;23.90;1.00
13221;DHT22;6675;48.128;11.478;2024-02-21T08:54:08;24.10;1.00
13221;DHT22;6675;48.128;11.478;2024-02-21T08:56:34;24.60;1.00
13221;DHT22;6675;48.128;11.478;2024-02-21T08:59:00;24.60;1.00
13221;DHT22;6675;48.128;11.478;2024-02-21T09:01:26;23.90;1.00
13221;DHT22;6675;48.128;11.478;2024-02-21T09:03:52;23.90;1.00
13221;DHT22;6675;48.128;11.478;2024-02-21T09:06:19;23.70;1.00
13221;DHT22;6675;48.128;11.478;2024-02-21T09:08:45;23.80;1.00
13221;DHT22;6675;48.128;11.478;2024-02-21T09:11:11;24.40;1.00
13221;DHT22;6675;48.128;11.478;2024-02-21T09:13:36;24.40;1.00
13221;DHT22;6675;48.128;11.478;2024-02-21T09:16:02;24.90;1.00
13221;DHT22;6675;48.128;11.478;2024-02-21T09:18:28;24.40;1.00
13221;DHT22;6675;48.128;11.478;2024-02-21T09:20:54;23.70;1.00
13221;DHT22;6675;48.128;11.478;2024-02-21T09:23:19;23.70;1.00
13221;DHT22;6675;48.128;11.478;2024-02-21T09:25:45;23.10;1.00
13221;DHT22;6675;48.128;11.478;2024-02-21T09:28:12;23.10;1.00
13221;DHT22;6675;48.128;11.478;2024-02-21T09:30:38;22.70;1.00
13221;DHT22;6675;48.128;11.478;2024-02-21T09:33:04;22.80;1.00
13221;DHT22;6675;48.128;11.478;2024-02-21T09:35:30;23.30;1.00
13221;DHT22;6675;48.128;11.478;2024-02-21T09:37:59;23.60;1.00
13221;DHT22;6675;48.128;11.478;2024-02-21T09:40:24;24.10;1.00
13221;DHT22;6675;48.128;11.478;2024-02-21T09:42:58;24.90;1.00
13221;DHT22;6675;48.128;11.478;2024-02-21T09:45:26;25.90;1.00
13221;DHT22;6675;48.128;11.478;2024-02-21T09:48:15;26.20;1.00
13221;DHT22;6675;48.128;11.478;2024-02-21T09:50:46;26.70;1.00
13221;DHT22;6675;48.128;11.478;2024-02-21T09:53:13;26.60;1.00
13221;DHT22;6675;48.128;11.478;2024-02-21T09:55:43;25.00;1.00
13221;DHT22;6675;48.128;11.478;2024-02-21T09:58:09;25.10;1.00
13221;DHT22;6675;48.128;11.478;2024-02-21T10:00:38;25.70;1.00
13221;DHT22;6675;48.128;11.478;2024-02-21T10:03:03;25.70;1.00
13221;DHT22;6675;48.128;11.478;2024-02-21T10:05:36;25.40;1.00
13221;DHT22;6675;48.128;11.478;2024-02-21T10:08:03;25.10;1.00
13221;DHT22;6675;48.128;11.478;2024-02-21T10:10:29;25.60;1.00
13221;DHT22;6675;48.128;11.478;2024-02-21T10:12:56;25.60;1.00
13221;DHT22;6675;48.128;11.478;2024-02-21T10:15:23;25.80;1.00
13221;DHT22;6675;48.128;11.478;2024-02-21T10:17:57;26.20;1.00
13221;DHT22;6675;48.128;11.478;2024-02-21T10:20:23;26.30;1.00
13221;DHT22;6675;48.128;11.478;2024-02-21T10:22:49;26.60;1.00
13221;DHT22;6675;48.128;11.478;2024-02-21T10:25:25;26.50;1.00
13221;DHT22;6675;48.128;11.478;2024-02-21T10:27:50;26.30;1.00
13221;DHT22;6675;48.128;11.478;2024-02-21T10:30:16;26.50;1.00
13221;DHT22;6675;48.128;11.478;2024-02-21T10:32:53;27.00;1.00
13221;DHT22;6675;48.128;11.478;2024-02-21T10:35:32;27.00;1.00
13221;DHT22;6675;48.128;11.478;2024-02-21T10:37:58;27.30;1.00
13221;DHT22;6675;48.128;11.478;2024-02-21T10:40:29;26.70;1.00
13221;DHT22;6675;48.128;11.478;2024-02-21T10:42:59;26.90;1.00
13221;DHT22;6675;48.128;11.478;2024-02-21T10:45:34;26.90;1.00
13221;DHT22;6675;48.128;11.478;2024-02-21T10:48:12;26.90;1.00
13221;DHT22;6675;48.128;11.478;2024-02-21T10:51:24;25.60;1.00
13221;DHT22;6675;48.128;11.478;2024-02-21T10:54:02;25.40;1.00
13221;DHT22;6675;48.128;11.478;2024-02-21T10:56:35;25.40;1.00
13221;DHT22;6675;48.128;11.478;2024-02-21T10:59:07;25.60;1.00
13221;DHT22;6675;48.128;11.478;2024-02-21T11:01:33;26.80;1.00
13221;DHT22;6675;48.128;11.478;2024-02-21T11:04:04;26.90;1.00
13221;DHT22;6675;48.128;11.478;2024-02-21T11:06:30;26.30;1.00
13221;DHT22;6675;48.128;11.478;2024-02-21T11:09:08;25.80;1.00
13221;DHT22;6675;48.128;11.478;2024-02-21T11:11:38;25.20;1.00
13221;DHT22;6675;48.128;11.478;2024-02-21T11:14:08;25.30;1.00
13221;DHT22;6675;48.128;11.478;2024-02-21T11:16:39;25.10;1.00
13221;DHT22;6675;48.128;11.478;2024-02-21T11:19:21;25.40;1.00
13221;DHT22;6675;48.128;11.478;2024-02-21T11:21:48;25.70;1.00
13221;DHT22;6675;48.128;11.478;2024-02-21T11:24:13;25.70;1.00
13221;DHT22;6675;48.128;11.478;2024-02-21T11:26:40;25.70;1.00
13221;DHT22;6675;48.128;11.478;2024-02-21T11:29:07;25.40;1.00
13221;DHT22;6675;48.128;11.478;2024-02-21T11:31:44;25.10;1.00
13221;DHT22;6675;48.128;11.478;2024-02-21T11:34:11;25.30;1.00
13221;DHT22;6675;48.128;11.478;2024-02-21T11:36:53;25.80;1.00
13221;DHT22;6675;48.128;11.478;2024-02-21T11:41:46;26.60;1.00
13221;DHT22;6675;48.128;11.478;2024-02-21T11:44:12;26.40;1.00
13221;DHT22;6675;48.128;11.478;2024-02-21T11:46:38;26.30;1.00
13221;DHT22;6675;48.128;11.478;2024-02-21T11:49:03;25.90;1.00
13221;DHT22;6675;48.128;11.478;2024-02-21T11:51:29;25.90;1.00
13221;DHT22;6675;48.128;11.478;2024-02-21T11:53:55;25.60;1.00
13221;DHT22;6675;48.128;11.478;2024-02-21T11:56:20;24.20;1.00
13221;DHT22;6675;48.128;11.478;2024-02-21T12:01:17;22.40;1.00
13221;DHT22;6675;48.128;11.478;2024-02-21T12:03:43;22.40;1.00
13221;DHT22;6675;48.128;11.478;2024-02-21T12:06:15;22.00;1.00
13221;DHT22;6675;48.128;11.478;2024-02-21T12:08:45;22.10;1.00
13221;DHT22;6675;48.128;11.478;2024-02-21T12:11:21;22.70;1.00
13221;DHT22;6675;48.128;11.478;2024-02-21T12:13:58;22.70;1.00
13221;DHT22;6675;48.128;11.478;2024-02-21T12:16:27;22.60;1.00
13221;DHT22;6675;48.128;11.478;2024-02-21T12:18:53;22.40;1.00
13221;DHT22;6675;48.128;11.478;2024-02-21T12:21:19;21.70;1.00
13221;DHT22;6675;48.128;11.478;2024-02-21T12:23:44;21.60;1.00
13221;DHT22;6675;48.128;11.478;2024-02-21T12:26:12;21.60;1.00
13221;DHT22;6675;48.128;11.478;2024-02-21T12:28:37;21.70;1.00
13221;DHT22;6675;48.128;11.478;2024-02-21T12:31:03;22.00;1.00
13221;DHT22;6675;48.128;11.478;2024-02-21T12:33:30;23.30;1.00
13221;DHT22;6675;48.128;11.478;2024-02-21T12:35:55;23.30;1.00
13221;DHT22;6675;48.128;11.478;2024-02-21T12:38:21;24.30;1.00
13221;DHT22;6675;48.128;11.478;2024-02-21T12:40:47;25.10;1.00
13221;DHT22;6675;48.128;11.478;2024-02-21T12:43:12;24.60;1.00
13221;DHT22;6675;48.128;11.478;2024-02-21T12:45:38;24.60;1.00
13221;DHT22;6675;48.128;11.478;2024-02-21T12:48:03;24.30;1.00
13221;DHT22;6675;48.128;11.478;2024-02-21T12:50:29;22.90;1.00
13221;DHT22;6675;48.128;11.478;2024-02-21T12:55:23;22.30;1.00
13221;DHT22;6675;48.128;11.478;2024-02-21T12:57:49;21.70;1.00
13221;DHT22;6675;48.128;11.478;2024-02-21T13:00:15;21.50;1.00
13221;DHT22;6675;48.128;11.478;2024-02-21T13:02:41;21.40;1.00
13221;DHT22;6675;48.128;11.478;2024-02-21T13:05:07;21.40;1.00
13221;DHT22;6675;48.128;11.478;2024-02-21T13:07:33;20.90;1.00
13221;DHT22;6675;48.128;11.478;2024-02-21T13:09:59;21.00;1.00
13221;DHT22;6675;48.128;11.478;2024-02-21T13:12:25;20.70;1.00
13221;DHT22;6675;48.128;11.478;2024-02-21T13:14:53;20.40;1.00
13221;DHT22;6675;48.128;11.478;2024-02-21T13:17:18;20.80;1.00
13221;DHT22;6675;48.128;11.478;2024-02-21T13:19:44;20.50;1.00
13221;DHT22;6675;48.128;11.478;2024-02-21T13:22:09;21.00;1.00
13221;DHT22;6675;48.128;11.478;2024-02-21T13:24:35;20.10;1.00
13221;DHT22;6675;48.128;11.478;2024-02-21T13:27:00;20.10;1.00
13221;DHT22;6675;48.128;11.478;2024-02-21T13:29:26;19.80;1.00
13221;DHT22;6675;48.128;11.478;2024-02-21T13:31:52;19.40;1.00
13221;DHT22;6675;48.128;11.478;2024-02-21T13:34:17;19.20;1.00
13221;DHT22;6675;48.128;11.478;2024-02-21T13:36:43;19.20;1.00
13221;DHT22;6675;48.128;11.478;2024-02-21T13:39:09;19.40;1.00
13221;DHT22;6675;48.128;11.478;2024-02-21T13:41:38;19.70;1.00
13221;DHT22;6675;48.128;11.478;2024-02-21T13:44:03;19.70;1.00
13221;DHT22;6675;48.128;11.478;2024-02-21T13:49:03;19.80;1.00
13221;DHT22;6675;48.128;11.478;2024-02-21T13:51:32;19.70;1.00
13221;DHT22;6675;48.128;11.478;2024-02-21T13:53:58;19.60;1.00
13221;DHT22;6675;48.128;11.478;2024-02-21T13:56:24;19.50;1.00
13221;DHT22;6675;48.128;11.478;2024-02-21T13:58:50;19.50;1.00
13221;DHT22;6675;48.128;11.478;2024-02-21T14:01:16;18.40;1.00
13221;DHT22;6675;48.128;11.478;2024-02-21T14:03:42;18.40;1.00
13221;DHT22;6675;48.128;11.478;2024-02-21T14:06:07;18.10;1.00
13221;DHT22;6675;48.128;11.478;2024-02-21T14:08:33;18.10;1.00
13221;DHT22;6675;48.128;11.478;2024-02-21T14:10:59;17.80;1.00
13221;DHT22;6675;48.128;11.478;2024-02-21T14:13:25;17.50;1.00
13221;DHT22;6675;48.128;11.478;2024-02-21T14:15:51;16.40;1.00
13221;DHT22;6675;48.128;11.478;2024-02-21T14:18:16;17.20;1.00
13221;DHT22;6675;48.128;11.478;2024-02-21T14:20:43;16.60;1.00
13221;DHT22;6675;48.128;11.478;2024-02-21T14:23:08;17.00;1.00
13221;DHT22;6675;48.128;11.478;2024-02-21T14:25:34;17.10;1.00
13221;DHT22;6675;48.128;11.478;2024-02-21T14:27:59;17.20;1.00
13221;DHT22;6675;48.128;11.478;2024-02-21T14:30:28;17.30;1.00
13221;DHT22;6675;48.128;11.478;2024-02-21T14:32:53;17.40;1.00
13221;DHT22;6675;48.128;11.478;2024-02-21T14:35:20;17.40;1.00
13221;DHT22;6675;48.128;11.478;2024-02-21T14:37:46;17.40;1.00
13221;DHT22;6675;48.128;11.478;2024-02-21T14:40:11;17.40;1.00
13221;DHT22;6675;48.128;11.478;2024-02-21T14:42:37;17.20;1.00
13221;DHT22;6675;48.128;11.478;2024-02-21T14:45:03;17.10;1.00
13221;DHT22;6675;48.128;11.478;2024-02-21T14:47:30;16.70;1.00
13221;DHT22;6675;48.128;11.478;2024-02-21T14:49:56;17.10;1.00
13221;DHT22;6675;48.128;11.478;2024-02-21T14:52:21;17.10;1.00
13221;DHT22;6675;48.128;11.478;2024-02-21T14:54:47;16.60;1.00
13221;DHT22;6675;48.128;11.478;2024-02-21T14:57:17;16.50;1.00
13221;DHT22;6675;48.128;11.478;2024-02-21T14:59:43;16.20;1.00
13221;DHT22;6675;48.128;11.478;2024-02-21T15:02:08;15.90;1.00
13221;DHT22;6675;48.128;11.478;2024-02-21T15:04:34;16.00;1.00
13221;DHT22;6675;48.128;11.478;2024-02-21T15:07:01;15.90;1.00
13221;DHT22;6675;48.128;11.478;2024-02-21T15:09:27;15.40;1.00
13221;DHT22;6675;48.128;11.478;2024-02-21T15:11:54;15.80;1.00
13221;DHT22;6675;48.128;11.478;2024-02-21T15:14:19;15.50;1.00
13221;DHT22;6675;48.128;11.478;2024-02-21T15:16:45;14.70;1.00
13221;DHT22;6675;48.128;11.478;2024-02-21T15:19:11;15.20;1.00
13221;DHT22;6675;48.128;11.478;2024-02-21T15:21:37;14.90;1.00
13221;DHT22;6675;48.128;11.478;2024-02-21T15:24:02;14.90;1.00
13221;DHT22;6675;48.128;11.478;2024-02-21T15:26:29;14.80;1.00
13221;DHT22;6675;48.128;11.478;2024-02-21T15:28:55;14.40;1.00
13221;DHT22;6675;48.128;11.478;2024-02-21T15:31:24;14.30;1.00
13221;DHT22;6675;48.128;11.478;2024-02-21T15:33:51;14.10;1.00
13221;DHT22;6675;48.128;11.478;2024-02-21T15:36:17;14.00;1.00
13221;DHT22;6675;48.128;11.478;2024-02-21T15:38:43;13.90;1.00
13221;DHT22;6675;48.128;11.478;2024-02-21T15:41:11;13.90;1.00
13221;DHT22;6675;48.128;11.478;2024-02-21T15:43:38;13.60;1.00
13221;DHT22;6675;48.128;11.478;2024-02-21T15:46:03;13.50;1.00
13221;DHT22;6675;48.128;11.478;2024-02-21T15:48:30;13.60;1.00
13221;DHT22;6675;48.128;11.478;2024-02-21T15:50:56;13.40;1.00
13221;DHT22;6675;48.128;11.478;2024-02-21T15:53:21;13.20;1.00
13221;DHT22;6675;48.128;11.478;2024-02-21T15:55:48;12.50;1.00
13221;DHT22;6675;48.128;11.478;2024-02-21T15:58:14;11.80;1.00
13221;DHT22;6675;48.128;11.478;2024-02-21T16:00:40;13.30;1.00
13221;DHT22;6675;48.128;11.478;2024-02-21T16:03:05;12.20;1.00
13221;DHT22;6675;48.128;11.478;2024-02-21T16:05:31;12.40;1.00
13221;DHT22;6675;48.128;11.478;2024-02-21T16:07:57;12.00;1.00